NZWN/WLG METAR and TAF weather

Enter ICAO airport designator
Station Type Date Time Source
NZWN METAR 2021/09/28 05:00 UTC NOAA

NZWN 280500Z AUTO 17012KT 9999 NCD 10/03 Q1016 NOSIG


Station Type Date Time Source
NZWN Decoded METAR 2021/09/28 05:00 UTC NOAA

Wellington Airport, New Zealand (NZWN) 41-20S 174-48E 8M
Sep 28, 2021 - 01:00 AM EDT / 2021.09.28 0500 UTC
Wind: from the S (170 degrees) at 14 MPH (12 KT):0
Visibility: greater than 7 mile(s):0
Temperature: 50 F (10 C)
Dew Point: 37 F (3 C)
Relative Humidity: 61%
Pressure (altimeter): 30.00 in. Hg (1016 hPa)
ob: NZWN 280500Z AUTO 17012KT 9999 NCD 10/03 Q1016 NOSIG
cycle: 5

Station Type Date Time Source
NZWN TAF 2021/09/28 06:03 UTC NOAA

TAF NZWN 280500Z 2806/2906 18010KT 9999 FEW030
BECMG 2810/2812 01005KT
BECMG 2822/2900 36015KT

Example: see airport list